createdAt,value
2018-10-19T00:01:10.533Z,81.10
2018-10-19T00:03:44.139Z,80.80
2018-10-19T00:06:17.729Z,80.40
2018-10-19T00:08:51.518Z,80.20
2018-10-19T00:11:25.079Z,80.20
2018-10-19T00:13:58.653Z,80.20
2018-10-19T00:16:32.188Z,80.40
2018-10-19T00:19:05.827Z,80.30
2018-10-19T00:21:39.518Z,80.40
2018-10-19T00:24:13.190Z,80.40
2018-10-19T00:26:46.815Z,80.40
2018-10-19T00:29:20.711Z,80.50
2018-10-19T00:31:54.378Z,80.40
2018-10-19T00:34:27.931Z,80.60
2018-10-19T00:37:01.535Z,81.00
2018-10-19T00:39:35.113Z,81.00
2018-10-19T00:42:08.718Z,81.00
2018-10-19T00:44:42.347Z,81.60
2018-10-19T00:47:16.095Z,81.50
2018-10-19T00:49:49.618Z,82.00
2018-10-19T00:52:23.189Z,81.60
2018-10-19T00:54:57.063Z,81.60
2018-10-19T00:57:30.916Z,81.40
2018-10-19T01:00:04.848Z,81.10
2018-10-19T01:02:38.562Z,81.20
2018-10-19T01:05:12.251Z,81.60
2018-10-19T01:07:45.842Z,81.30
2018-10-19T01:10:23.948Z,81.30
2018-10-19T01:12:58.767Z,81.20
2018-10-19T01:15:32.470Z,81.00
2018-10-19T01:18:06.098Z,80.90
2018-10-19T01:20:39.719Z,81.20
2018-10-19T01:23:13.571Z,81.40
2018-10-19T01:25:47.146Z,81.50
2018-10-19T01:28:20.847Z,81.40
2018-10-19T01:30:54.406Z,81.10
2018-10-19T01:33:28.075Z,81.20
2018-10-19T01:36:01.747Z,81.10
2018-10-19T01:38:35.477Z,82.20
2018-10-19T01:41:09.244Z,83.00
2018-10-19T01:43:42.915Z,83.20
2018-10-19T01:46:16.535Z,83.60
2018-10-19T01:48:51.165Z,84.00
2018-10-19T01:51:24.909Z,83.90
2018-10-19T01:53:58.467Z,82.80
2018-10-19T01:56:32.058Z,83.00
2018-10-19T01:59:05.770Z,82.80
2018-10-19T02:01:39.310Z,82.80
2018-10-19T02:04:17.283Z,82.70
2018-10-19T02:06:50.846Z,83.00
2018-10-19T02:09:24.568Z,83.40
2018-10-19T02:11:58.202Z,83.30
2018-10-19T02:14:31.882Z,83.50
2018-10-19T02:17:05.996Z,84.20
2018-10-19T02:19:39.517Z,84.40
2018-10-19T02:22:13.323Z,85.00
2018-10-19T02:24:47.127Z,84.90
2018-10-19T02:27:20.919Z,84.70
2018-10-19T02:29:54.843Z,83.70
2018-10-19T02:32:28.502Z,83.50
2018-10-19T02:35:02.076Z,83.40
2018-10-19T02:37:35.635Z,82.90
2018-10-19T02:40:09.814Z,82.90
2018-10-19T02:42:43.571Z,83.20
2018-10-19T02:45:17.445Z,83.20
2018-10-19T02:47:50.925Z,83.10
2018-10-19T02:50:24.563Z,83.30
2018-10-19T02:52:58.322Z,83.30
2018-10-19T02:55:32.910Z,84.00
2018-10-19T02:58:06.459Z,83.60
2018-10-19T03:00:40.351Z,83.80
2018-10-19T03:03:13.940Z,83.80
2018-10-19T03:05:47.634Z,84.40
2018-10-19T03:08:21.186Z,84.40
2018-10-19T03:10:54.840Z,84.50
2018-10-19T03:13:29.577Z,85.00
2018-10-19T03:16:03.110Z,85.00
2018-10-19T03:18:36.826Z,85.30
2018-10-19T03:21:10.515Z,85.50
2018-10-19T03:23:43.988Z,85.60
2018-10-19T03:26:17.766Z,84.70
2018-10-19T03:28:51.330Z,84.90
2018-10-19T03:31:24.970Z,85.30
2018-10-19T03:33:58.892Z,86.00
2018-10-19T03:36:32.636Z,86.10
2018-10-19T03:39:06.535Z,86.40
2018-10-19T03:41:40.079Z,86.70
2018-10-19T03:44:13.690Z,86.40
2018-10-19T03:46:47.278Z,85.70
2018-10-19T03:49:21.101Z,86.00
2018-10-19T03:51:54.679Z,86.20
2018-10-19T03:54:28.490Z,85.70
2018-10-19T03:57:02.179Z,86.40
2018-10-19T03:59:35.838Z,86.00
2018-10-19T04:02:09.456Z,86.00
2018-10-19T04:04:43.030Z,86.30
2018-10-19T04:07:16.664Z,86.50
2018-10-19T04:09:51.527Z,86.50
2018-10-19T04:12:25.326Z,86.40
2018-10-19T04:14:58.910Z,86.70
2018-10-19T04:17:32.442Z,86.90
2018-10-19T04:20:07.239Z,87.10
2018-10-19T04:22:40.973Z,87.50
2018-10-19T04:25:14.791Z,87.70
2018-10-19T04:27:48.384Z,87.90
2018-10-19T04:30:22.074Z,87.80
2018-10-19T04:32:55.698Z,87.90
2018-10-19T04:35:29.343Z,88.00
2018-10-19T04:38:03.314Z,88.00
2018-10-19T04:40:36.935Z,88.10
2018-10-19T04:43:10.814Z,88.20
2018-10-19T04:45:45.516Z,88.50
2018-10-19T04:48:19.337Z,88.90
2018-10-19T04:50:53.968Z,89.40
2018-10-19T04:53:27.581Z,90.20
2018-10-19T04:56:01.147Z,90.20
2018-10-19T04:58:34.773Z,90.40
2018-10-19T05:01:08.574Z,90.80
2018-10-19T05:03:42.148Z,91.60
2018-10-19T05:06:15.850Z,91.70
2018-10-19T05:08:49.603Z,91.70
2018-10-19T05:11:23.141Z,91.90
2018-10-19T05:13:56.817Z,91.80
2018-10-19T05:16:30.419Z,91.90
2018-10-19T05:19:04.179Z,92.00
2018-10-19T05:21:38.014Z,91.70
2018-10-19T05:24:11.616Z,91.80
2018-10-19T05:26:45.662Z,91.60
2018-10-19T05:29:19.318Z,91.50
2018-10-19T05:31:53.039Z,91.20
2018-10-19T05:34:27.620Z,91.40
2018-10-19T05:37:01.466Z,91.20
2018-10-19T05:39:35.023Z,91.30
2018-10-19T05:42:08.807Z,91.10
2018-10-19T05:44:42.450Z,91.10
2018-10-19T05:47:16.407Z,91.20
2018-10-19T05:49:49.922Z,91.10
2018-10-19T05:52:23.664Z,91.30
2018-10-19T05:54:57.478Z,91.30
2018-10-19T05:57:31.147Z,91.50
2018-10-19T06:00:05.671Z,91.60
2018-10-19T06:02:39.370Z,91.60
2018-10-19T06:05:13.043Z,91.40
2018-10-19T06:07:46.599Z,92.00
2018-10-19T06:10:20.211Z,91.70
2018-10-19T06:12:53.803Z,92.20
2018-10-19T06:15:27.458Z,92.70
2018-10-19T06:18:01.068Z,93.10
2018-10-19T06:20:34.670Z,93.60
2018-10-19T06:23:08.335Z,93.90
2018-10-19T06:25:42.119Z,93.80
2018-10-19T06:28:15.744Z,93.70
2018-10-19T06:30:49.415Z,93.60
2018-10-19T06:33:23.198Z,93.40
2018-10-19T06:35:56.818Z,93.40
2018-10-19T06:38:30.624Z,93.20
2018-10-19T06:41:04.324Z,93.20
2018-10-19T06:43:38.085Z,93.10
2018-10-19T06:46:11.655Z,92.90
2018-10-19T06:48:45.274Z,92.90
2018-10-19T06:51:19.041Z,92.70
2018-10-19T06:53:52.855Z,93.00
2018-10-19T06:56:26.490Z,92.70
2018-10-19T06:59:00.191Z,92.80
2018-10-19T07:01:33.706Z,92.60
2018-10-19T07:04:07.238Z,92.20
2018-10-19T07:06:41.022Z,92.70
2018-10-19T07:09:14.589Z,92.50
2018-10-19T07:11:48.415Z,92.70
2018-10-19T07:14:22.232Z,92.50
2018-10-19T07:16:55.957Z,92.40
2018-10-19T07:19:29.738Z,92.30
2018-10-19T07:22:03.466Z,92.30
2018-10-19T07:24:37.046Z,92.50
2018-10-19T07:27:10.726Z,92.20
2018-10-19T07:29:44.462Z,92.40
2018-10-19T07:32:18.164Z,92.20
2018-10-19T07:34:52.121Z,92.20
2018-10-19T07:37:25.758Z,91.90
2018-10-19T07:39:59.376Z,91.80
2018-10-19T07:42:33.108Z,91.70
2018-10-19T07:45:06.696Z,91.90
2018-10-19T07:47:40.533Z,91.80
2018-10-19T07:50:20.571Z,91.80
2018-10-19T07:52:54.364Z,91.90
2018-10-19T07:55:27.861Z,91.90
2018-10-19T07:58:01.713Z,92.00
2018-10-19T08:00:35.516Z,91.70
2018-10-19T08:03:09.125Z,91.60
2018-10-19T08:05:42.690Z,91.70
2018-10-19T08:08:16.401Z,91.30
2018-10-19T08:10:50.050Z,91.40
2018-10-19T08:13:23.626Z,91.10
2018-10-19T08:15:57.419Z,91.00
2018-10-19T08:18:31.035Z,90.90
2018-10-19T08:21:05.049Z,91.00
2018-10-19T08:23:38.582Z,90.80
2018-10-19T08:26:12.353Z,90.90
2018-10-19T08:28:46.007Z,90.90
2018-10-19T08:31:19.559Z,91.00
2018-10-19T08:33:53.149Z,90.50
2018-10-19T08:36:26.798Z,90.60
2018-10-19T08:39:00.484Z,90.70
2018-10-19T08:41:34.066Z,90.90
2018-10-19T08:44:07.625Z,91.00
2018-10-19T08:46:42.070Z,91.50
2018-10-19T08:49:15.758Z,91.50
2018-10-19T08:51:49.390Z,92.00
2018-10-19T08:54:23.010Z,92.30
2018-10-19T08:56:56.756Z,92.60
2018-10-19T08:59:30.382Z,93.00
2018-10-19T09:02:04.592Z,93.00
2018-10-19T09:04:38.268Z,93.40
2018-10-19T09:07:12.067Z,93.70
2018-10-19T09:09:52.586Z,93.10
2018-10-19T09:12:26.272Z,93.10
2018-10-19T09:15:01.337Z,92.80
2018-10-19T09:17:35.022Z,92.70
2018-10-19T09:20:08.808Z,92.80
2018-10-19T09:22:42.371Z,92.90
2018-10-19T09:25:16.023Z,92.40
2018-10-19T09:27:49.651Z,92.20
2018-10-19T09:30:23.275Z,92.30
2018-10-19T09:32:56.903Z,91.60
2018-10-19T09:35:30.452Z,91.60
2018-10-19T09:38:03.974Z,91.80
2018-10-19T09:40:37.666Z,92.50
2018-10-19T09:43:11.535Z,92.10
2018-10-19T09:45:45.077Z,91.90
2018-10-19T09:48:18.831Z,92.30
2018-10-19T09:50:52.452Z,92.50
2018-10-19T09:53:26.067Z,92.20
2018-10-19T09:55:59.647Z,92.00
2018-10-19T09:58:33.252Z,92.20
2018-10-19T10:01:12.753Z,91.90
2018-10-19T10:03:53.207Z,91.50
2018-10-19T10:06:27.252Z,91.50
2018-10-19T10:09:01.014Z,90.60
2018-10-19T10:11:34.835Z,89.90
2018-10-19T10:14:08.771Z,89.00
2018-10-19T10:16:42.562Z,89.00
2018-10-19T10:19:16.350Z,89.60
2018-10-19T10:21:49.933Z,88.80
2018-10-19T10:24:23.547Z,89.10
2018-10-19T10:26:57.087Z,89.60
2018-10-19T10:29:30.867Z,89.70
2018-10-19T10:32:04.689Z,90.00
2018-10-19T10:34:38.343Z,89.60
2018-10-19T10:37:12.256Z,90.10
2018-10-19T10:39:45.826Z,90.00
2018-10-19T10:42:19.466Z,90.40
2018-10-19T10:44:53.298Z,90.40
2018-10-19T10:47:26.994Z,90.80
2018-10-19T10:50:00.804Z,90.60
2018-10-19T10:52:34.450Z,90.70
2018-10-19T10:55:08.344Z,90.20
2018-10-19T10:57:42.032Z,90.20
2018-10-19T11:00:15.576Z,90.70
2018-10-19T11:02:49.345Z,90.70
2018-10-19T11:05:23.103Z,90.30
2018-10-19T11:07:56.831Z,90.40
2018-10-19T11:10:30.443Z,90.80
2018-10-19T11:13:04.264Z,90.70
2018-10-19T11:15:37.971Z,90.30
2018-10-19T11:18:11.610Z,89.40
2018-10-19T11:20:45.392Z,89.80
2018-10-19T11:23:19.040Z,89.10
2018-10-19T11:25:52.778Z,89.00
2018-10-19T11:28:26.326Z,87.50
2018-10-19T11:31:00.845Z,85.30
2018-10-19T11:33:34.476Z,84.30
2018-10-19T11:36:08.261Z,86.60
2018-10-19T11:38:41.846Z,86.20
2018-10-19T11:41:15.430Z,86.40
2018-10-19T11:43:49.310Z,85.10
2018-10-19T11:46:23.151Z,85.00
2018-10-19T11:48:56.827Z,83.80
2018-10-19T11:51:30.343Z,83.60
2018-10-19T11:54:03.946Z,83.80
2018-10-19T11:56:37.726Z,84.40
2018-10-19T11:59:11.364Z,83.00
2018-10-19T12:01:45.059Z,83.50
2018-10-19T12:04:18.772Z,83.20
2018-10-19T12:06:52.521Z,81.20
2018-10-19T12:09:26.134Z,81.20
2018-10-19T12:11:59.767Z,83.10
2018-10-19T12:14:33.390Z,82.10
2018-10-19T12:17:07.022Z,81.10
2018-10-19T12:19:40.605Z,80.70
2018-10-19T12:22:14.315Z,79.40
2018-10-19T12:24:48.089Z,77.90
2018-10-19T12:27:21.855Z,76.70
2018-10-19T12:29:55.430Z,77.90
2018-10-19T12:32:29.036Z,75.00
2018-10-19T12:35:02.857Z,74.90
2018-10-19T12:37:36.700Z,75.50
2018-10-19T12:40:11.086Z,74.70
2018-10-19T12:42:44.649Z,72.60
2018-10-19T12:46:26.581Z,73.40
2018-10-19T12:49:00.216Z,73.80
2018-10-19T12:51:33.986Z,71.10
2018-10-19T12:54:08.008Z,71.10
2018-10-19T12:56:41.633Z,69.70
2018-10-19T12:59:15.249Z,70.10
2018-10-19T13:01:49.050Z,71.10
2018-10-19T13:04:22.739Z,69.50
2018-10-19T13:06:56.406Z,69.50
2018-10-19T13:09:29.939Z,68.90
2018-10-19T13:12:03.790Z,67.70
2018-10-19T13:14:37.610Z,68.00
2018-10-19T13:17:11.206Z,68.10
2018-10-19T13:19:44.819Z,68.10
2018-10-19T13:22:18.490Z,68.20
2018-10-19T13:24:52.235Z,68.50
2018-10-19T13:27:25.789Z,68.10
2018-10-19T13:29:59.376Z,69.50
2018-10-19T13:32:33.215Z,67.30
2018-10-19T13:35:06.878Z,65.00
2018-10-19T13:37:40.666Z,65.50
2018-10-19T13:40:14.275Z,63.90
2018-10-19T13:42:48.023Z,64.70
2018-10-19T13:48:01.783Z,65.70
2018-10-19T13:50:35.367Z,66.10
2018-10-19T13:53:09.252Z,66.40
2018-10-19T13:55:42.815Z,66.20
2018-10-19T13:58:16.729Z,66.30
2018-10-19T14:00:50.291Z,66.30
2018-10-19T14:03:24.222Z,65.80
2018-10-19T14:05:57.811Z,66.70
2018-10-19T14:08:31.404Z,67.10
2018-10-19T14:11:05.107Z,66.80
2018-10-19T14:13:39.457Z,66.20
2018-10-19T14:16:13.015Z,66.40
2018-10-19T14:18:46.801Z,66.80
2018-10-19T14:21:20.321Z,66.60
2018-10-19T14:23:54.142Z,65.00
2018-10-19T14:26:28.520Z,65.50
2018-10-19T14:29:02.882Z,63.80
2018-10-19T14:31:37.202Z,65.60
2018-10-19T14:34:11.524Z,66.10
2018-10-19T14:36:45.847Z,66.90
2018-10-19T14:39:20.185Z,67.50
2018-10-19T14:41:54.485Z,67.60
2018-10-19T14:44:28.699Z,67.90
2018-10-19T14:47:03.019Z,68.00
2018-10-19T14:49:37.354Z,68.20
2018-10-19T14:52:12.261Z,68.70
2018-10-19T14:54:46.712Z,69.50
2018-10-19T14:57:21.036Z,70.00
2018-10-19T14:59:55.377Z,69.70
2018-10-19T15:02:29.739Z,69.50
2018-10-19T15:05:04.486Z,69.30
2018-10-19T15:07:39.218Z,70.30
2018-10-19T15:10:18.700Z,70.80
2018-10-19T15:12:52.942Z,70.50
2018-10-19T15:15:27.382Z,70.90
2018-10-19T15:18:01.785Z,71.30
2018-10-19T15:20:36.263Z,71.00
2018-10-19T15:23:10.627Z,70.80
2018-10-19T15:25:45.070Z,70.80
2018-10-19T15:28:19.404Z,70.70
2018-10-19T15:30:53.743Z,70.80
2018-10-19T15:33:28.105Z,70.80
2018-10-19T15:36:02.727Z,70.70
2018-10-19T15:38:37.330Z,70.60
2018-10-19T15:41:11.743Z,71.10
2018-10-19T15:43:46.403Z,71.10
2018-10-19T15:46:20.967Z,71.90
2018-10-19T15:48:55.212Z,71.80
2018-10-19T15:51:29.452Z,72.50
2018-10-19T15:54:03.803Z,72.20
2018-10-19T15:56:39.734Z,72.70
2018-10-19T15:59:14.144Z,72.90
2018-10-19T16:01:48.512Z,74.90
2018-10-19T16:04:22.930Z,74.90
2018-10-19T16:06:57.439Z,75.20
2018-10-19T16:09:31.737Z,75.60
2018-10-19T16:12:06.201Z,75.20
2018-10-19T16:14:40.650Z,74.80
2018-10-19T16:17:15.022Z,76.10
2018-10-19T16:19:49.311Z,76.40
2018-10-19T16:22:23.647Z,76.00
2018-10-19T16:24:57.946Z,76.00
2018-10-19T16:27:32.317Z,76.40
2018-10-19T16:30:07.770Z,77.20
2018-10-19T16:32:42.034Z,76.40
2018-10-19T16:35:16.345Z,76.30
2018-10-19T16:37:50.668Z,76.80
2018-10-19T16:40:24.939Z,76.80
2018-10-19T16:42:59.219Z,76.00
2018-10-19T16:45:33.558Z,75.60
2018-10-19T16:48:08.094Z,75.00
2018-10-19T16:50:42.386Z,74.70
2018-10-19T16:53:16.687Z,74.60
2018-10-19T16:55:51.112Z,74.60
2018-10-19T16:58:25.894Z,74.60
2018-10-19T17:01:00.128Z,74.60
2018-10-19T17:03:34.428Z,74.50
2018-10-19T17:06:08.846Z,74.50
2018-10-19T17:08:43.273Z,74.70
2018-10-19T17:11:17.496Z,75.20
2018-10-19T17:13:51.747Z,75.10
2018-10-19T17:16:25.971Z,75.20
2018-10-19T17:19:00.335Z,75.10
2018-10-19T17:21:34.670Z,75.00
2018-10-19T17:24:08.931Z,75.10
2018-10-19T17:26:43.194Z,75.10
2018-10-19T17:29:17.665Z,75.30
2018-10-19T17:31:51.967Z,75.20
2018-10-19T17:34:26.341Z,75.20
2018-10-19T17:37:00.602Z,75.30
2018-10-19T17:39:34.877Z,75.40
2018-10-19T17:42:09.280Z,75.50
2018-10-19T17:44:43.436Z,75.50
2018-10-19T17:47:17.850Z,75.70
2018-10-19T17:49:52.148Z,75.70
2018-10-19T17:52:26.452Z,75.60
2018-10-19T17:55:00.885Z,75.60
2018-10-19T17:57:35.286Z,75.70
2018-10-19T18:00:11.073Z,75.40
2018-10-19T18:02:45.511Z,75.90
2018-10-19T18:05:19.794Z,75.70
2018-10-19T18:07:54.150Z,74.80
2018-10-19T18:10:28.734Z,74.90
2018-10-19T18:13:03.081Z,75.10
2018-10-19T18:15:37.416Z,76.00
2018-10-19T18:18:11.686Z,76.00
2018-10-19T18:20:45.946Z,76.00
2018-10-19T18:23:20.676Z,76.00
2018-10-19T18:25:54.789Z,76.00
2018-10-19T18:28:29.183Z,76.10
2018-10-19T18:31:03.595Z,75.80
2018-10-19T18:33:37.928Z,75.80
2018-10-19T18:36:12.390Z,77.40
2018-10-19T18:38:46.759Z,77.40
2018-10-19T18:41:21.274Z,77.50
2018-10-19T18:43:55.695Z,77.60
2018-10-19T18:46:30.075Z,77.00
2018-10-19T18:49:04.586Z,76.90
2018-10-19T18:51:38.947Z,76.60
2018-10-19T18:54:13.386Z,76.30
2018-10-19T18:56:47.858Z,76.40
2018-10-19T18:59:22.224Z,76.90
2018-10-19T19:01:56.610Z,77.00
2018-10-19T19:04:30.966Z,76.90
2018-10-19T19:07:06.039Z,76.90
2018-10-19T19:09:40.335Z,77.20
2018-10-19T19:12:14.693Z,77.10
2018-10-19T19:14:49.063Z,76.60
2018-10-19T19:17:23.393Z,76.50
2018-10-19T19:20:03.386Z,76.30
2018-10-19T19:22:37.683Z,76.10
2018-10-19T19:25:17.491Z,76.90
2018-10-19T19:27:51.979Z,76.70
2018-10-19T19:30:26.384Z,76.90
2018-10-19T19:33:06.006Z,76.30
2018-10-19T19:35:40.303Z,76.00
2018-10-19T19:38:14.862Z,76.40
2018-10-19T19:40:54.696Z,76.40
2018-10-19T19:43:29.019Z,76.30
2018-10-19T19:46:03.339Z,75.70
2018-10-19T19:48:42.976Z,76.10
2018-10-19T19:51:17.406Z,76.40
2018-10-19T19:53:51.792Z,76.30
2018-10-19T19:56:26.093Z,75.60
2018-10-19T19:59:00.601Z,75.70
2018-10-19T20:01:34.788Z,76.00
2018-10-19T20:04:09.204Z,76.80
2018-10-19T20:06:43.550Z,76.50
2018-10-19T20:09:17.814Z,78.00
2018-10-19T20:11:52.142Z,77.90
2018-10-19T20:14:26.507Z,78.30
2018-10-19T20:17:00.827Z,78.00
2018-10-19T20:19:35.168Z,78.10
2018-10-19T20:22:09.449Z,77.40
2018-10-19T20:24:43.715Z,77.00
2018-10-19T20:27:18.076Z,76.40
2018-10-19T20:29:52.272Z,76.60
2018-10-19T20:32:26.693Z,77.20
2018-10-19T20:35:01.075Z,76.90
2018-10-19T20:37:35.350Z,76.90
2018-10-19T20:40:09.749Z,80.00
2018-10-19T20:42:44.185Z,82.60
2018-10-19T20:45:18.620Z,82.70
2018-10-19T20:47:53.041Z,82.60
2018-10-19T20:50:27.459Z,82.00
2018-10-19T20:53:01.963Z,81.90
2018-10-19T20:55:36.268Z,81.30
2018-10-19T20:58:10.728Z,81.60
2018-10-19T21:00:45.110Z,81.80
2018-10-19T21:03:19.485Z,82.00
2018-10-19T21:05:53.769Z,82.00
2018-10-19T21:08:29.229Z,82.10
2018-10-19T21:11:03.601Z,81.90
2018-10-19T21:13:37.960Z,82.10
2018-10-19T21:16:12.337Z,81.40
2018-10-19T21:18:46.760Z,80.40
2018-10-19T21:21:21.115Z,80.20
2018-10-19T21:23:55.454Z,80.00
2018-10-19T21:26:29.883Z,80.30
2018-10-19T21:29:04.266Z,79.80
2018-10-19T21:31:38.600Z,80.70
2018-10-19T21:34:12.972Z,80.10
2018-10-19T21:36:47.373Z,80.90
2018-10-19T21:39:21.754Z,80.50
2018-10-19T21:41:56.179Z,80.90
2018-10-19T21:44:30.512Z,80.90
2018-10-19T21:47:04.900Z,80.70
2018-10-19T21:49:39.465Z,80.00
2018-10-19T21:52:13.852Z,80.00
2018-10-19T21:54:48.397Z,80.80
2018-10-19T21:57:22.786Z,81.30
2018-10-19T21:59:57.160Z,81.10
2018-10-19T22:02:31.572Z,80.80
2018-10-19T22:05:06.218Z,80.80
2018-10-19T22:07:40.682Z,80.90
2018-10-19T22:10:14.923Z,80.70
2018-10-19T22:12:49.359Z,80.60
2018-10-19T22:15:23.841Z,80.90
2018-10-19T22:17:58.465Z,81.30
2018-10-19T22:20:32.832Z,81.60
2018-10-19T22:23:07.183Z,80.70
2018-10-19T22:25:41.639Z,80.20
2018-10-19T22:28:16.161Z,80.00
2018-10-19T22:30:50.703Z,80.90
2018-10-19T22:33:24.992Z,81.40
2018-10-19T22:35:59.648Z,80.20
2018-10-19T22:38:33.924Z,80.00
2018-10-19T22:41:08.420Z,79.70
2018-10-19T22:43:42.783Z,80.60
2018-10-19T22:46:17.110Z,80.40
2018-10-19T22:48:51.409Z,80.10
2018-10-19T22:51:25.669Z,80.00
2018-10-19T22:54:00.002Z,81.00
2018-10-19T22:56:34.361Z,81.20
2018-10-19T22:59:08.912Z,81.60
2018-10-19T23:01:43.295Z,81.90
2018-10-19T23:04:17.784Z,81.50
2018-10-19T23:06:52.103Z,81.60
2018-10-19T23:09:26.527Z,82.00
2018-10-19T23:12:00.835Z,81.90
2018-10-19T23:14:35.090Z,81.70
2018-10-19T23:17:09.432Z,82.40
2018-10-19T23:19:43.696Z,82.40
2018-10-19T23:22:17.938Z,83.00
2018-10-19T23:24:52.682Z,83.00
2018-10-19T23:27:26.998Z,83.10
2018-10-19T23:30:01.286Z,83.10
2018-10-19T23:32:35.723Z,82.90
2018-10-19T23:35:10.202Z,82.70
2018-10-19T23:37:44.636Z,83.60
2018-10-19T23:40:18.887Z,83.90
2018-10-19T23:42:53.156Z,83.80
2018-10-19T23:45:27.450Z,83.60
2018-10-19T23:48:01.853Z,83.80
2018-10-19T23:50:36.347Z,83.70
2018-10-19T23:53:10.803Z,83.20
2018-10-19T23:55:45.122Z,83.30
2018-10-19T23:58:19.535Z,83.60
